sensor_id;sensor_type;location;lat;lon;timestamp;P1;durP1;ratioP1;P2;durP2;ratioP2
73900;SDS011;62235;52.160;7.526;2022-10-16T00:02:16;5.37;;;3.47;;
73900;SDS011;62235;52.160;7.526;2022-10-16T00:04:42;6.03;;;3.17;;
73900;SDS011;62235;52.160;7.526;2022-10-16T00:07:07;5.63;;;2.97;;
73900;SDS011;62235;52.160;7.526;2022-10-16T00:09:32;7.20;;;3.07;;
73900;SDS011;62235;52.160;7.526;2022-10-16T00:11:58;5.20;;;2.67;;
73900;SDS011;62235;52.160;7.526;2022-10-16T00:14:23;6.65;;;3.10;;
73900;SDS011;62235;52.160;7.526;2022-10-16T00:16:48;8.13;;;3.13;;
73900;SDS011;62235;52.160;7.526;2022-10-16T00:19:14;7.70;;;3.20;;
73900;SDS011;62235;52.160;7.526;2022-10-16T00:21:39;7.13;;;2.93;;
73900;SDS011;62235;52.160;7.526;2022-10-16T00:24:05;5.77;;;3.07;;
73900;SDS011;62235;52.160;7.526;2022-10-16T00:26:33;4.85;;;3.10;;
73900;SDS011;62235;52.160;7.526;2022-10-16T00:28:59;5.78;;;3.20;;
73900;SDS011;62235;52.160;7.526;2022-10-16T00:31:24;6.65;;;3.08;;
73900;SDS011;62235;52.160;7.526;2022-10-16T00:33:50;6.93;;;3.80;;
73900;SDS011;62235;52.160;7.526;2022-10-16T00:36:17;8.35;;;4.13;;
73900;SDS011;62235;52.160;7.526;2022-10-16T00:38:44;10.30;;;4.40;;
73900;SDS011;62235;52.160;7.526;2022-10-16T00:41:10;9.18;;;4.50;;
73900;SDS011;62235;52.160;7.526;2022-10-16T00:43:42;10.30;;;4.65;;
73900;SDS011;62235;52.160;7.526;2022-10-16T00:48:54;10.73;;;4.82;;
73900;SDS011;62235;52.160;7.526;2022-10-16T00:51:25;12.52;;;5.15;;
73900;SDS011;62235;52.160;7.526;2022-10-16T00:53:55;9.00;;;5.15;;
73900;SDS011;62235;52.160;7.526;2022-10-16T00:56:21;10.27;;;5.68;;
73900;SDS011;62235;52.160;7.526;2022-10-16T00:58:46;10.20;;;5.83;;
73900;SDS011;62235;52.160;7.526;2022-10-16T01:01:12;11.48;;;6.13;;
73900;SDS011;62235;52.160;7.526;2022-10-16T01:03:37;11.40;;;5.53;;
73900;SDS011;62235;52.160;7.526;2022-10-16T01:08:57;11.43;;;6.60;;
73900;SDS011;62235;52.160;7.526;2022-10-16T01:11:49;16.27;;;6.90;;
73900;SDS011;62235;52.160;7.526;2022-10-16T01:22:59;12.82;;;7.82;;
73900;SDS011;62235;52.160;7.526;2022-10-16T01:25:37;15.27;;;7.65;;
73900;SDS011;62235;52.160;7.526;2022-10-16T01:28:09;13.63;;;7.57;;
73900;SDS011;62235;52.160;7.526;2022-10-16T01:30:36;15.02;;;7.63;;
73900;SDS011;62235;52.160;7.526;2022-10-16T01:33:04;18.13;;;8.73;;
73900;SDS011;62235;52.160;7.526;2022-10-16T01:35:36;13.68;;;7.57;;
73900;SDS011;62235;52.160;7.526;2022-10-16T01:38:11;18.50;;;8.68;;
73900;SDS011;62235;52.160;7.526;2022-10-16T01:40:41;11.43;;;7.82;;
73900;SDS011;62235;52.160;7.526;2022-10-16T01:43:24;14.75;;;7.78;;
73900;SDS011;62235;52.160;7.526;2022-10-16T01:45:52;13.95;;;8.18;;
73900;SDS011;62235;52.160;7.526;2022-10-16T01:48:18;11.35;;;7.18;;
73900;SDS011;62235;52.160;7.526;2022-10-16T01:50:48;15.48;;;7.93;;
73900;SDS011;62235;52.160;7.526;2022-10-16T01:53:21;13.13;;;8.30;;
73900;SDS011;62235;52.160;7.526;2022-10-16T01:55:47;16.17;;;8.80;;
73900;SDS011;62235;52.160;7.526;2022-10-16T01:58:13;15.35;;;7.88;;
73900;SDS011;62235;52.160;7.526;2022-10-16T02:00:40;12.43;;;8.45;;
73900;SDS011;62235;52.160;7.526;2022-10-16T02:03:07;12.90;;;7.07;;
73900;SDS011;62235;52.160;7.526;2022-10-16T02:05:39;13.00;;;7.80;;
73900;SDS011;62235;52.160;7.526;2022-10-16T02:08:07;12.90;;;8.18;;
73900;SDS011;62235;52.160;7.526;2022-10-16T02:10:32;12.57;;;7.97;;
73900;SDS011;62235;52.160;7.526;2022-10-16T02:13:01;12.73;;;7.90;;
73900;SDS011;62235;52.160;7.526;2022-10-16T02:15:29;12.55;;;8.00;;
73900;SDS011;62235;52.160;7.526;2022-10-16T02:17:55;13.00;;;7.60;;
73900;SDS011;62235;52.160;7.526;2022-10-16T02:20:21;12.30;;;6.88;;
73900;SDS011;62235;52.160;7.526;2022-10-16T02:22:50;11.93;;;7.22;;
73900;SDS011;62235;52.160;7.526;2022-10-16T02:25:17;15.63;;;7.10;;
73900;SDS011;62235;52.160;7.526;2022-10-16T02:30:25;13.93;;;7.18;;
73900;SDS011;62235;52.160;7.526;2022-10-16T02:32:55;13.35;;;7.35;;
73900;SDS011;62235;52.160;7.526;2022-10-16T02:35:23;15.73;;;8.00;;
73900;SDS011;62235;52.160;7.526;2022-10-16T02:37:49;12.98;;;7.32;;
73900;SDS011;62235;52.160;7.526;2022-10-16T02:40:15;10.68;;;7.20;;
73900;SDS011;62235;52.160;7.526;2022-10-16T02:42:42;13.32;;;7.28;;
73900;SDS011;62235;52.160;7.526;2022-10-16T02:45:08;12.38;;;7.47;;
73900;SDS011;62235;52.160;7.526;2022-10-16T02:47:34;14.90;;;7.55;;
73900;SDS011;62235;52.160;7.526;2022-10-16T02:50:00;15.05;;;8.23;;
73900;SDS011;62235;52.160;7.526;2022-10-16T02:52:25;14.25;;;8.00;;
73900;SDS011;62235;52.160;7.526;2022-10-16T02:54:51;14.38;;;8.27;;
73900;SDS011;62235;52.160;7.526;2022-10-16T02:57:16;15.70;;;8.82;;
73900;SDS011;62235;52.160;7.526;2022-10-16T02:59:42;11.60;;;7.57;;
73900;SDS011;62235;52.160;7.526;2022-10-16T03:02:07;16.88;;;7.80;;
73900;SDS011;62235;52.160;7.526;2022-10-16T03:04:32;12.52;;;8.05;;
73900;SDS011;62235;52.160;7.526;2022-10-16T03:06:58;12.73;;;7.00;;
73900;SDS011;62235;52.160;7.526;2022-10-16T03:09:23;13.33;;;8.33;;
73900;SDS011;62235;52.160;7.526;2022-10-16T03:11:48;14.97;;;8.50;;
73900;SDS011;62235;52.160;7.526;2022-10-16T03:14:14;14.63;;;8.63;;
73900;SDS011;62235;52.160;7.526;2022-10-16T03:16:39;13.97;;;7.97;;
73900;SDS011;62235;52.160;7.526;2022-10-16T03:19:04;12.20;;;7.13;;
73900;SDS011;62235;52.160;7.526;2022-10-16T03:21:30;15.43;;;8.25;;
73900;SDS011;62235;52.160;7.526;2022-10-16T03:23:55;12.40;;;7.80;;
73900;SDS011;62235;52.160;7.526;2022-10-16T03:26:20;12.57;;;7.03;;
73900;SDS011;62235;52.160;7.526;2022-10-16T03:28:46;18.02;;;8.60;;
73900;SDS011;62235;52.160;7.526;2022-10-16T03:31:11;18.37;;;7.83;;
73900;SDS011;62235;52.160;7.526;2022-10-16T03:33:36;13.00;;;7.43;;
73900;SDS011;62235;52.160;7.526;2022-10-16T03:36:01;14.00;;;7.57;;
73900;SDS011;62235;52.160;7.526;2022-10-16T03:38:27;12.90;;;7.18;;
73900;SDS011;62235;52.160;7.526;2022-10-16T03:40:52;12.97;;;7.20;;
73900;SDS011;62235;52.160;7.526;2022-10-16T03:43:18;10.77;;;6.28;;
73900;SDS011;62235;52.160;7.526;2022-10-16T03:45:43;13.32;;;7.45;;
73900;SDS011;62235;52.160;7.526;2022-10-16T03:48:09;10.87;;;6.63;;
73900;SDS011;62235;52.160;7.526;2022-10-16T03:50:34;8.73;;;5.70;;
73900;SDS011;62235;52.160;7.526;2022-10-16T03:52:59;10.23;;;6.20;;
73900;SDS011;62235;52.160;7.526;2022-10-16T03:55:25;12.93;;;6.43;;
73900;SDS011;62235;52.160;7.526;2022-10-16T03:57:50;11.33;;;6.57;;
73900;SDS011;62235;52.160;7.526;2022-10-16T04:00:15;14.03;;;7.20;;
73900;SDS011;62235;52.160;7.526;2022-10-16T04:02:40;10.27;;;6.93;;
73900;SDS011;62235;52.160;7.526;2022-10-16T04:05:06;14.07;;;6.90;;
73900;SDS011;62235;52.160;7.526;2022-10-16T04:07:32;12.90;;;7.30;;
73900;SDS011;62235;52.160;7.526;2022-10-16T04:09:57;13.50;;;6.83;;
73900;SDS011;62235;52.160;7.526;2022-10-16T04:12:24;11.55;;;6.25;;
73900;SDS011;62235;52.160;7.526;2022-10-16T04:14:49;10.52;;;6.68;;
73900;SDS011;62235;52.160;7.526;2022-10-16T04:17:15;12.67;;;6.47;;
73900;SDS011;62235;52.160;7.526;2022-10-16T04:19:40;8.77;;;5.70;;
73900;SDS011;62235;52.160;7.526;2022-10-16T04:22:05;9.40;;;6.10;;
73900;SDS011;62235;52.160;7.526;2022-10-16T04:24:31;12.07;;;5.87;;
73900;SDS011;62235;52.160;7.526;2022-10-16T04:26:56;7.32;;;4.95;;
73900;SDS011;62235;52.160;7.526;2022-10-16T04:29:21;9.43;;;5.53;;
73900;SDS011;62235;52.160;7.526;2022-10-16T04:31:47;12.13;;;5.27;;
73900;SDS011;62235;52.160;7.526;2022-10-16T04:34:12;8.93;;;5.20;;
73900;SDS011;62235;52.160;7.526;2022-10-16T04:36:37;9.50;;;5.90;;
73900;SDS011;62235;52.160;7.526;2022-10-16T04:39:03;9.20;;;5.83;;
73900;SDS011;62235;52.160;7.526;2022-10-16T04:41:28;8.95;;;5.40;;
73900;SDS011;62235;52.160;7.526;2022-10-16T04:43:53;10.13;;;5.20;;
73900;SDS011;62235;52.160;7.526;2022-10-16T04:46:19;9.10;;;5.40;;
73900;SDS011;62235;52.160;7.526;2022-10-16T04:48:44;10.13;;;5.70;;
73900;SDS011;62235;52.160;7.526;2022-10-16T04:51:09;8.43;;;5.05;;
73900;SDS011;62235;52.160;7.526;2022-10-16T04:53:35;12.32;;;4.95;;
73900;SDS011;62235;52.160;7.526;2022-10-16T04:56:01;11.73;;;4.95;;
73900;SDS011;62235;52.160;7.526;2022-10-16T04:58:27;7.53;;;4.50;;
73900;SDS011;62235;52.160;7.526;2022-10-16T05:00:52;7.40;;;4.63;;
73900;SDS011;62235;52.160;7.526;2022-10-16T05:03:18;7.90;;;4.95;;
73900;SDS011;62235;52.160;7.526;2022-10-16T05:05:43;6.50;;;4.20;;
73900;SDS011;62235;52.160;7.526;2022-10-16T05:08:10;9.95;;;4.90;;
73900;SDS011;62235;52.160;7.526;2022-10-16T05:10:35;5.90;;;4.20;;
73900;SDS011;62235;52.160;7.526;2022-10-16T05:13:01;7.55;;;4.53;;
73900;SDS011;62235;52.160;7.526;2022-10-16T05:15:26;7.20;;;4.47;;
73900;SDS011;62235;52.160;7.526;2022-10-16T05:17:52;8.02;;;4.32;;
73900;SDS011;62235;52.160;7.526;2022-10-16T05:20:18;7.32;;;4.30;;
73900;SDS011;62235;52.160;7.526;2022-10-16T05:22:44;6.93;;;4.07;;
73900;SDS011;62235;52.160;7.526;2022-10-16T05:25:09;6.07;;;3.83;;
73900;SDS011;62235;52.160;7.526;2022-10-16T05:27:34;6.40;;;3.70;;
73900;SDS011;62235;52.160;7.526;2022-10-16T05:29:59;4.57;;;3.43;;
73900;SDS011;62235;52.160;7.526;2022-10-16T05:32:25;6.73;;;4.40;;
73900;SDS011;62235;52.160;7.526;2022-10-16T05:34:50;5.83;;;3.70;;
73900;SDS011;62235;52.160;7.526;2022-10-16T05:37:15;6.03;;;3.80;;
73900;SDS011;62235;52.160;7.526;2022-10-16T05:39:41;5.47;;;3.60;;
73900;SDS011;62235;52.160;7.526;2022-10-16T05:42:06;5.10;;;3.57;;
73900;SDS011;62235;52.160;7.526;2022-10-16T05:44:31;4.93;;;3.40;;
73900;SDS011;62235;52.160;7.526;2022-10-16T05:46:57;7.28;;;3.85;;
73900;SDS011;62235;52.160;7.526;2022-10-16T05:49:22;8.38;;;4.20;;
73900;SDS011;62235;52.160;7.526;2022-10-16T05:51:48;5.60;;;4.00;;
73900;SDS011;62235;52.160;7.526;2022-10-16T05:54:13;5.53;;;3.57;;
73900;SDS011;62235;52.160;7.526;2022-10-16T05:56:38;7.28;;;3.63;;
73900;SDS011;62235;52.160;7.526;2022-10-16T05:59:04;5.40;;;3.47;;
73900;SDS011;62235;52.160;7.526;2022-10-16T06:01:29;4.65;;;3.53;;
73900;SDS011;62235;52.160;7.526;2022-10-16T06:03:56;5.82;;;3.45;;
73900;SDS011;62235;52.160;7.526;2022-10-16T06:06:22;4.97;;;3.25;;
73900;SDS011;62235;52.160;7.526;2022-10-16T06:08:50;5.85;;;3.05;;
73900;SDS011;62235;52.160;7.526;2022-10-16T06:11:17;6.78;;;3.40;;
73900;SDS011;62235;52.160;7.526;2022-10-16T06:13:49;4.78;;;3.33;;
73900;SDS011;62235;52.160;7.526;2022-10-16T06:16:15;5.80;;;3.30;;
73900;SDS011;62235;52.160;7.526;2022-10-16T06:18:40;4.90;;;3.22;;
73900;SDS011;62235;52.160;7.526;2022-10-16T06:21:07;7.18;;;3.08;;
73900;SDS011;62235;52.160;7.526;2022-10-16T06:23:33;8.02;;;3.17;;
73900;SDS011;62235;52.160;7.526;2022-10-16T06:26:08;7.80;;;3.57;;
73900;SDS011;62235;52.160;7.526;2022-10-16T06:28:34;6.97;;;3.38;;
73900;SDS011;62235;52.160;7.526;2022-10-16T06:31:00;4.65;;;3.03;;
73900;SDS011;62235;52.160;7.526;2022-10-16T06:33:28;5.90;;;3.33;;
73900;SDS011;62235;52.160;7.526;2022-10-16T06:35:59;4.55;;;3.13;;
73900;SDS011;62235;52.160;7.526;2022-10-16T06:38:28;4.45;;;2.55;;
73900;SDS011;62235;52.160;7.526;2022-10-16T06:40:54;4.78;;;3.03;;
73900;SDS011;62235;52.160;7.526;2022-10-16T06:43:19;9.40;;;2.92;;
73900;SDS011;62235;52.160;7.526;2022-10-16T06:45:50;3.60;;;2.73;;
73900;SDS011;62235;52.160;7.526;2022-10-16T06:48:16;5.07;;;3.13;;
73900;SDS011;62235;52.160;7.526;2022-10-16T06:50:42;4.80;;;3.13;;
73900;SDS011;62235;52.160;7.526;2022-10-16T06:53:07;5.47;;;2.93;;
73900;SDS011;62235;52.160;7.526;2022-10-16T06:55:32;4.77;;;2.87;;
73900;SDS011;62235;52.160;7.526;2022-10-16T06:57:57;3.97;;;2.43;;
73900;SDS011;62235;52.160;7.526;2022-10-16T07:00:23;6.57;;;2.73;;
73900;SDS011;62235;52.160;7.526;2022-10-16T07:02:49;2.93;;;2.00;;
73900;SDS011;62235;52.160;7.526;2022-10-16T07:05:14;5.10;;;2.22;;
73900;SDS011;62235;52.160;7.526;2022-10-16T07:07:39;5.97;;;2.10;;
73900;SDS011;62235;52.160;7.526;2022-10-16T07:10:05;4.23;;;2.40;;
73900;SDS011;62235;52.160;7.526;2022-10-16T07:12:30;4.25;;;2.25;;
73900;SDS011;62235;52.160;7.526;2022-10-16T07:14:56;6.37;;;1.97;;
73900;SDS011;62235;52.160;7.526;2022-10-16T07:17:21;3.30;;;1.92;;
73900;SDS011;62235;52.160;7.526;2022-10-16T07:19:46;6.57;;;2.47;;
73900;SDS011;62235;52.160;7.526;2022-10-16T07:22:12;4.28;;;2.00;;
73900;SDS011;62235;52.160;7.526;2022-10-16T07:24:37;5.00;;;2.33;;
73900;SDS011;62235;52.160;7.526;2022-10-16T07:27:02;5.10;;;2.10;;
73900;SDS011;62235;52.160;7.526;2022-10-16T07:29:28;7.90;;;2.50;;
73900;SDS011;62235;52.160;7.526;2022-10-16T07:31:53;10.53;;;1.80;;
73900;SDS011;62235;52.160;7.526;2022-10-16T07:34:19;4.27;;;2.30;;
73900;SDS011;62235;52.160;7.526;2022-10-16T07:36:49;4.78;;;2.70;;
73900;SDS011;62235;52.160;7.526;2022-10-16T07:39:15;4.60;;;2.03;;
73900;SDS011;62235;52.160;7.526;2022-10-16T07:41:41;3.53;;;2.20;;
73900;SDS011;62235;52.160;7.526;2022-10-16T07:44:06;3.28;;;2.00;;
73900;SDS011;62235;52.160;7.526;2022-10-16T07:46:31;8.00;;;2.30;;
73900;SDS011;62235;52.160;7.526;2022-10-16T07:48:58;3.63;;;1.95;;
73900;SDS011;62235;52.160;7.526;2022-10-16T07:51:25;4.77;;;2.00;;
73900;SDS011;62235;52.160;7.526;2022-10-16T07:53:51;2.88;;;1.30;;
73900;SDS011;62235;52.160;7.526;2022-10-16T07:56:17;4.50;;;1.85;;
73900;SDS011;62235;52.160;7.526;2022-10-16T07:58:43;3.65;;;1.83;;
73900;SDS011;62235;52.160;7.526;2022-10-16T08:01:09;3.92;;;1.60;;
73900;SDS011;62235;52.160;7.526;2022-10-16T08:03:36;3.60;;;1.90;;
73900;SDS011;62235;52.160;7.526;2022-10-16T08:06:02;3.70;;;2.00;;
73900;SDS011;62235;52.160;7.526;2022-10-16T08:08:27;4.03;;;2.15;;
73900;SDS011;62235;52.160;7.526;2022-10-16T08:10:53;4.03;;;1.58;;
73900;SDS011;62235;52.160;7.526;2022-10-16T08:13:19;5.70;;;2.55;;
73900;SDS011;62235;52.160;7.526;2022-10-16T08:15:45;4.18;;;2.10;;
73900;SDS011;62235;52.160;7.526;2022-10-16T08:18:11;4.03;;;1.63;;
73900;SDS011;62235;52.160;7.526;2022-10-16T08:20:38;7.07;;;2.22;;
73900;SDS011;62235;52.160;7.526;2022-10-16T08:23:04;4.93;;;2.13;;
73900;SDS011;62235;52.160;7.526;2022-10-16T08:25:29;4.07;;;1.90;;
73900;SDS011;62235;52.160;7.526;2022-10-16T08:27:55;5.03;;;1.90;;
73900;SDS011;62235;52.160;7.526;2022-10-16T08:30:21;2.22;;;1.60;;
73900;SDS011;62235;52.160;7.526;2022-10-16T08:32:47;1.60;;;1.20;;
73900;SDS011;62235;52.160;7.526;2022-10-16T08:35:13;3.28;;;1.45;;
73900;SDS011;62235;52.160;7.526;2022-10-16T08:37:39;8.20;;;1.60;;
73900;SDS011;62235;52.160;7.526;2022-10-16T08:40:05;5.05;;;1.50;;
73900;SDS011;62235;52.160;7.526;2022-10-16T08:50:35;3.03;;;1.30;;
73900;SDS011;62235;52.160;7.526;2022-10-16T08:53:01;4.88;;;1.48;;
73900;SDS011;62235;52.160;7.526;2022-10-16T08:58:19;5.50;;;1.30;;
73900;SDS011;62235;52.160;7.526;2022-10-16T09:00:46;1.70;;;1.00;;
73900;SDS011;62235;52.160;7.526;2022-10-16T09:10:59;2.95;;;0.93;;
73900;SDS011;62235;52.160;7.526;2022-10-16T09:17:06;3.90;;;1.15;;
73900;SDS011;62235;52.160;7.526;2022-10-16T09:19:28;2.90;;;1.00;;
73900;SDS011;62235;52.160;7.526;2022-10-16T09:21:56;1.88;;;0.80;;
73900;SDS011;62235;52.160;7.526;2022-10-16T09:24:23;3.88;;;1.00;;
73900;SDS011;62235;52.160;7.526;2022-10-16T09:26:50;1.30;;;0.60;;
73900;SDS011;62235;52.160;7.526;2022-10-16T09:29:16;3.20;;;0.95;;
73900;SDS011;62235;52.160;7.526;2022-10-16T09:31:45;3.20;;;1.15;;
73900;SDS011;62235;52.160;7.526;2022-10-16T09:37:12;0.98;;;0.52;;
73900;SDS011;62235;52.160;7.526;2022-10-16T09:39:46;2.60;;;1.10;;
73900;SDS011;62235;52.160;7.526;2022-10-16T09:42:18;3.67;;;1.38;;
73900;SDS011;62235;52.160;7.526;2022-10-16T09:44:47;3.10;;;0.80;;
73900;SDS011;62235;52.160;7.526;2022-10-16T09:47:15;5.22;;;0.90;;
73900;SDS011;62235;52.160;7.526;2022-10-16T09:52:26;2.90;;;0.90;;
73900;SDS011;62235;52.160;7.526;2022-10-16T09:55:03;4.20;;;1.15;;
73900;SDS011;62235;52.160;7.526;2022-10-16T09:57:48;2.30;;;0.80;;
73900;SDS011;62235;52.160;7.526;2022-10-16T10:00:15;2.60;;;0.85;;
73900;SDS011;62235;52.160;7.526;2022-10-16T10:02:41;6.70;;;1.17;;
73900;SDS011;62235;52.160;7.526;2022-10-16T10:05:14;3.83;;;0.85;;
73900;SDS011;62235;52.160;7.526;2022-10-16T10:07:43;3.70;;;1.00;;
73900;SDS011;62235;52.160;7.526;2022-10-16T10:10:20;2.65;;;1.00;;
73900;SDS011;62235;52.160;7.526;2022-10-16T10:12:50;4.15;;;1.00;;
73900;SDS011;62235;52.160;7.526;2022-10-16T10:15:15;2.03;;;0.80;;
73900;SDS011;62235;52.160;7.526;2022-10-16T10:17:52;5.28;;;0.70;;
73900;SDS011;62235;52.160;7.526;2022-10-16T10:20:26;3.80;;;0.75;;
73900;SDS011;62235;52.160;7.526;2022-10-16T10:22:52;4.53;;;0.90;;
73900;SDS011;62235;52.160;7.526;2022-10-16T10:38:52;6.50;;;2.38;;
73900;SDS011;62235;52.160;7.526;2022-10-16T10:46:54;5.35;;;1.38;;
73900;SDS011;62235;52.160;7.526;2022-10-16T10:54:59;7.57;;;2.22;;
73900;SDS011;62235;52.160;7.526;2022-10-16T11:08:43;3.55;;;2.00;;
73900;SDS011;62235;52.160;7.526;2022-10-16T11:11:35;4.28;;;2.20;;
73900;SDS011;62235;52.160;7.526;2022-10-16T11:19:31;4.55;;;1.52;;
73900;SDS011;62235;52.160;7.526;2022-10-16T11:22:30;9.30;;;1.83;;
73900;SDS011;62235;52.160;7.526;2022-10-16T11:30:16;4.47;;;1.83;;
73900;SDS011;62235;52.160;7.526;2022-10-16T11:35:24;11.23;;;1.50;;
73900;SDS011;62235;52.160;7.526;2022-10-16T11:37:53;5.88;;;1.50;;
73900;SDS011;62235;52.160;7.526;2022-10-16T11:40:23;3.33;;;1.27;;
73900;SDS011;62235;52.160;7.526;2022-10-16T11:42:54;5.25;;;1.58;;
73900;SDS011;62235;52.160;7.526;2022-10-16T11:45:33;3.53;;;1.20;;
73900;SDS011;62235;52.160;7.526;2022-10-16T11:55:45;4.72;;;0.88;;
73900;SDS011;62235;52.160;7.526;2022-10-16T11:58:27;3.70;;;1.00;;
73900;SDS011;62235;52.160;7.526;2022-10-16T12:01:04;3.88;;;1.00;;
73900;SDS011;62235;52.160;7.526;2022-10-16T12:03:47;4.30;;;0.95;;
73900;SDS011;62235;52.160;7.526;2022-10-16T12:06:39;4.00;;;1.10;;
73900;SDS011;62235;52.160;7.526;2022-10-16T12:09:09;3.92;;;1.25;;
73900;SDS011;62235;52.160;7.526;2022-10-16T12:11:39;3.40;;;0.80;;
73900;SDS011;62235;52.160;7.526;2022-10-16T12:16:50;4.53;;;0.90;;
73900;SDS011;62235;52.160;7.526;2022-10-16T12:19:19;3.85;;;1.10;;
73900;SDS011;62235;52.160;7.526;2022-10-16T12:21:45;5.97;;;1.30;;
73900;SDS011;62235;52.160;7.526;2022-10-16T12:26:56;3.80;;;0.93;;
73900;SDS011;62235;52.160;7.526;2022-10-16T12:32:04;2.50;;;0.60;;
73900;SDS011;62235;52.160;7.526;2022-10-16T12:37:08;3.38;;;1.02;;
73900;SDS011;62235;52.160;7.526;2022-10-16T12:39:36;3.75;;;0.95;;
73900;SDS011;62235;52.160;7.526;2022-10-16T12:42:03;5.07;;;1.00;;
73900;SDS011;62235;52.160;7.526;2022-10-16T12:44:34;4.30;;;1.00;;
73900;SDS011;62235;52.160;7.526;2022-10-16T12:47:01;2.42;;;0.80;;
73900;SDS011;62235;52.160;7.526;2022-10-16T12:49:36;5.78;;;1.13;;
73900;SDS011;62235;52.160;7.526;2022-10-16T12:52:03;4.75;;;1.05;;
73900;SDS011;62235;52.160;7.526;2022-10-16T12:54:35;4.53;;;1.10;;
73900;SDS011;62235;52.160;7.526;2022-10-16T13:05:26;3.28;;;1.00;;
73900;SDS011;62235;52.160;7.526;2022-10-16T13:10:53;4.43;;;0.88;;
73900;SDS011;62235;52.160;7.526;2022-10-16T13:13:29;3.20;;;0.75;;
73900;SDS011;62235;52.160;7.526;2022-10-16T13:16:05;5.43;;;1.00;;
73900;SDS011;62235;52.160;7.526;2022-10-16T13:26:55;5.32;;;0.85;;
73900;SDS011;62235;52.160;7.526;2022-10-16T13:29:24;3.97;;;1.15;;
73900;SDS011;62235;52.160;7.526;2022-10-16T13:31:55;3.55;;;0.93;;
73900;SDS011;62235;52.160;7.526;2022-10-16T13:34:21;4.07;;;0.80;;
73900;SDS011;62235;52.160;7.526;2022-10-16T13:36:48;3.28;;;0.93;;
73900;SDS011;62235;52.160;7.526;2022-10-16T13:44:25;5.00;;;0.90;;
73900;SDS011;62235;52.160;7.526;2022-10-16T13:46:58;4.80;;;1.10;;
73900;SDS011;62235;52.160;7.526;2022-10-16T13:49:24;4.50;;;0.90;;
73900;SDS011;62235;52.160;7.526;2022-10-16T13:51:56;5.03;;;1.00;;
73900;SDS011;62235;52.160;7.526;2022-10-16T13:54:23;3.08;;;0.85;;
73900;SDS011;62235;52.160;7.526;2022-10-16T13:56:49;3.97;;;1.00;;
73900;SDS011;62235;52.160;7.526;2022-10-16T14:01:57;3.63;;;0.82;;
73900;SDS011;62235;52.160;7.526;2022-10-16T14:04:24;3.42;;;0.77;;
73900;SDS011;62235;52.160;7.526;2022-10-16T14:06:52;5.32;;;1.17;;
73900;SDS011;62235;52.160;7.526;2022-10-16T14:09:25;4.13;;;0.98;;
73900;SDS011;62235;52.160;7.526;2022-10-16T14:11:53;5.82;;;0.98;;
73900;SDS011;62235;52.160;7.526;2022-10-16T14:14:41;5.57;;;1.13;;
73900;SDS011;62235;52.160;7.526;2022-10-16T14:17:43;3.10;;;0.82;;
73900;SDS011;62235;52.160;7.526;2022-10-16T14:20:00;3.40;;;1.00;;
73900;SDS011;62235;52.160;7.526;2022-10-16T14:24:54;4.82;;;1.00;;
73900;SDS011;62235;52.160;7.526;2022-10-16T14:27:28;4.15;;;1.00;;
73900;SDS011;62235;52.160;7.526;2022-10-16T14:32:32;6.13;;;1.05;;
73900;SDS011;62235;52.160;7.526;2022-10-16T14:34:57;3.28;;;0.80;;
73900;SDS011;62235;52.160;7.526;2022-10-16T14:37:24;3.07;;;1.00;;
73900;SDS011;62235;52.160;7.526;2022-10-16T14:39:52;4.90;;;0.88;;
73900;SDS011;62235;52.160;7.526;2022-10-16T14:42:18;6.15;;;0.73;;
73900;SDS011;62235;52.160;7.526;2022-10-16T14:44:45;4.70;;;0.80;;
73900;SDS011;62235;52.160;7.526;2022-10-16T14:47:15;4.07;;;0.90;;
73900;SDS011;62235;52.160;7.526;2022-10-16T14:49:42;3.13;;;0.80;;
73900;SDS011;62235;52.160;7.526;2022-10-16T14:52:08;2.17;;;0.75;;
73900;SDS011;62235;52.160;7.526;2022-10-16T14:54:35;3.78;;;0.85;;
73900;SDS011;62235;52.160;7.526;2022-10-16T14:57:00;3.90;;;0.90;;
73900;SDS011;62235;52.160;7.526;2022-10-16T14:59:33;2.43;;;0.90;;
73900;SDS011;62235;52.160;7.526;2022-10-16T15:02:27;3.53;;;0.95;;
73900;SDS011;62235;52.160;7.526;2022-10-16T15:04:54;6.18;;;1.17;;
73900;SDS011;62235;52.160;7.526;2022-10-16T15:07:19;3.20;;;0.90;;
73900;SDS011;62235;52.160;7.526;2022-10-16T15:09:44;10.43;;;1.13;;
73900;SDS011;62235;52.160;7.526;2022-10-16T15:12:10;4.10;;;1.03;;
73900;SDS011;62235;52.160;7.526;2022-10-16T15:14:35;3.50;;;0.90;;
73900;SDS011;62235;52.160;7.526;2022-10-16T15:17:00;4.67;;;1.00;;
73900;SDS011;62235;52.160;7.526;2022-10-16T15:19:26;4.30;;;0.97;;
73900;SDS011;62235;52.160;7.526;2022-10-16T15:21:51;2.83;;;0.73;;
73900;SDS011;62235;52.160;7.526;2022-10-16T15:24:17;6.60;;;1.50;;
73900;SDS011;62235;52.160;7.526;2022-10-16T15:26:43;4.00;;;1.10;;
73900;SDS011;62235;52.160;7.526;2022-10-16T15:29:08;3.93;;;1.03;;
73900;SDS011;62235;52.160;7.526;2022-10-16T15:31:33;5.57;;;1.10;;
73900;SDS011;62235;52.160;7.526;2022-10-16T15:33:59;5.03;;;1.05;;
73900;SDS011;62235;52.160;7.526;2022-10-16T15:36:29;5.20;;;0.90;;
73900;SDS011;62235;52.160;7.526;2022-10-16T15:38:58;5.07;;;1.00;;
73900;SDS011;62235;52.160;7.526;2022-10-16T15:41:24;6.57;;;1.10;;
73900;SDS011;62235;52.160;7.526;2022-10-16T15:43:49;4.50;;;1.13;;
73900;SDS011;62235;52.160;7.526;2022-10-16T15:46:17;3.10;;;0.98;;
73900;SDS011;62235;52.160;7.526;2022-10-16T15:48:44;4.53;;;1.15;;
73900;SDS011;62235;52.160;7.526;2022-10-16T15:51:09;3.60;;;1.10;;
73900;SDS011;62235;52.160;7.526;2022-10-16T15:53:35;5.07;;;1.20;;
73900;SDS011;62235;52.160;7.526;2022-10-16T15:56:07;5.45;;;1.20;;
73900;SDS011;62235;52.160;7.526;2022-10-16T15:58:33;7.15;;;1.30;;
73900;SDS011;62235;52.160;7.526;2022-10-16T16:00:59;4.53;;;1.52;;
73900;SDS011;62235;52.160;7.526;2022-10-16T16:03:26;3.35;;;1.23;;
73900;SDS011;62235;52.160;7.526;2022-10-16T16:05:52;5.15;;;1.33;;
73900;SDS011;62235;52.160;7.526;2022-10-16T16:08:17;4.50;;;1.80;;
73900;SDS011;62235;52.160;7.526;2022-10-16T16:10:43;6.22;;;1.90;;
73900;SDS011;62235;52.160;7.526;2022-10-16T16:13:08;5.63;;;1.85;;
73900;SDS011;62235;52.160;7.526;2022-10-16T16:15:33;4.82;;;1.50;;
73900;SDS011;62235;52.160;7.526;2022-10-16T16:17:59;8.80;;;1.70;;
73900;SDS011;62235;52.160;7.526;2022-10-16T16:20:26;4.75;;;1.30;;
73900;SDS011;62235;52.160;7.526;2022-10-16T16:22:52;3.40;;;1.30;;
73900;SDS011;62235;52.160;7.526;2022-10-16T16:25:17;5.43;;;1.27;;
73900;SDS011;62235;52.160;7.526;2022-10-16T16:27:42;3.45;;;1.17;;
73900;SDS011;62235;52.160;7.526;2022-10-16T16:30:10;5.68;;;1.40;;
73900;SDS011;62235;52.160;7.526;2022-10-16T16:32:36;6.88;;;1.40;;
73900;SDS011;62235;52.160;7.526;2022-10-16T16:35:02;4.67;;;1.40;;
73900;SDS011;62235;52.160;7.526;2022-10-16T16:37:28;5.30;;;1.50;;
73900;SDS011;62235;52.160;7.526;2022-10-16T16:39:54;10.75;;;1.60;;
73900;SDS011;62235;52.160;7.526;2022-10-16T16:42:20;4.82;;;1.40;;
73900;SDS011;62235;52.160;7.526;2022-10-16T16:44:47;6.63;;;1.70;;
73900;SDS011;62235;52.160;7.526;2022-10-16T16:47:12;8.38;;;2.30;;
73900;SDS011;62235;52.160;7.526;2022-10-16T16:49:38;8.83;;;2.23;;
73900;SDS011;62235;52.160;7.526;2022-10-16T16:52:03;2.75;;;1.40;;
73900;SDS011;62235;52.160;7.526;2022-10-16T16:54:28;7.80;;;1.50;;
73900;SDS011;62235;52.160;7.526;2022-10-16T16:56:54;4.67;;;1.40;;
73900;SDS011;62235;52.160;7.526;2022-10-16T16:59:20;4.50;;;1.52;;
73900;SDS011;62235;52.160;7.526;2022-10-16T17:01:46;7.28;;;2.58;;
73900;SDS011;62235;52.160;7.526;2022-10-16T17:04:12;8.02;;;2.50;;
73900;SDS011;62235;52.160;7.526;2022-10-16T17:06:39;9.23;;;3.40;;
73900;SDS011;62235;52.160;7.526;2022-10-16T17:09:05;7.18;;;2.33;;
73900;SDS011;62235;52.160;7.526;2022-10-16T17:11:32;10.18;;;2.35;;
73900;SDS011;62235;52.160;7.526;2022-10-16T17:13:58;7.32;;;3.20;;